Latest Weather Observations for Warrnambool

IDV60801

Issued at 8:01 am EDT Tuesday 23 December 2014 (issued every 30 minutes, with the page automatically refreshed every 10 minutes)

About weather observations | Map of weather stations | Latest weather observations for VIC | Other Formats
Station Details ID: 090186 Name: WARRNAMBOOL AIRPORT NDB Lat: -38.29 Lon: 142.45 Height: 70.8 m
Data from the previous 72 hours. | See also: Recent months at Warrnambool
Date/Time
EDT
Temp
°C
App
Temp
°C
Dew
Point
Rel
Hum
%
Delta-T
°C
Wind Press
QNH
hPa
Press
MSL
hPa
Rain
since 9 am
mm
Dir
 
Spd
km/h
Gust
km/h
Spd
kts
Gust
kts
23/08:00am 18.7 16.6 16.3 86 1.4 WNW 22 32 12 17 1008.3 1008.2 0.0
23/07:30am 18.2 16.5 16.2 88 1.2 WNW 20 28 11 15 1008.1 1008.0 0.0
23/07:00am 18.0 16.8 16.0 88 1.2 WNW 17 24 9 13 1007.9 1007.8 0.0
23/06:30am 17.7 15.9 15.9 89 1.1 NW 20 26 11 14 1007.7 1007.6 0.0
23/06:00am 17.8 16.1 15.8 88 1.2 WNW 19 24 10 13 1007.5 1007.4 0.0
23/05:30am 18.0 17.0 16.5 91 0.9 WNW 17 22 9 12 1007.2 1007.1 0.0
23/05:00am 17.3 17.5 16.7 96 0.4 WNW 11 17 6 9 1006.8 1006.7 0.0
23/04:30am 16.6 16.6 16.3 98 0.2 NNW 11 13 6 7 1006.8 1006.7 0.0
23/04:00am 16.7 17.1 16.4 98 0.2 NNW 9 11 5 6 1006.8 1006.7 0.0
23/03:30am 16.7 16.8 16.5 99 0.1 NNW 11 13 6 7 1007.3 1007.2 0.0
23/03:00am 16.6 17.0 16.3 98 0.2 N 9 11 5 6 1007.3 1007.2 0.0
23/02:30am 16.5 16.1 16.2 98 0.2 NW 13 17 7 9 1007.4 1007.3 0.0
23/02:00am 16.5 16.1 16.2 98 0.2 NW 13 15 7 8 1007.5 1007.4 0.0
23/01:30am 16.6 16.9 16.1 97 0.3 WNW 9 13 5 7 1007.4 1007.3 0.0
23/01:00am 16.7 16.6 16.1 96 0.4 NW 11 17 6 9 1007.9 1007.8 0.0
23/12:30am 16.6 16.9 16.0 96 0.4 NW 9 15 5 8 1007.6 1007.5 0.0
23/12:00am 16.8 16.7 16.0 95 0.5 WNW 11 15 6 8 1007.7 1007.6 0.0
 
Date/Time
EDT
Temp
°C
App
Temp
°C
Dew
Point
Rel
Hum
%
Delta-T
°C
Wind Press
QNH
hPa
Press
MSL
hPa
Rain
since 9 am
mm
Dir
 
Spd
km/h
Gust
km/h
Spd
kts
Gust
kts
22/11:30pm 17.1 16.7 16.1 94 0.6 WNW 13 19 7 10 1007.7 1007.6 0.0
22/11:00pm 17.2 18.0 15.9 92 0.8 SSE 6 9 3 5 1007.4 1007.3 0.0
22/10:30pm 17.4 17.7 15.9 91 0.9 SW 9 11 5 6 1007.6 1007.5 0.0
22/10:00pm 17.6 17.4 15.8 89 1.1 W 11 17 6 9 1007.8 1007.7 0.0
22/09:30pm 17.9 17.7 15.7 87 1.3 WSW 11 15 6 8 1007.7 1007.6 0.0
22/09:00pm 18.4 18.5 15.5 83 1.7 SW 9 11 5 6 1007.7 1007.6 0.0
22/08:30pm 18.8 17.5 14.9 78 2.3 WSW 15 22 8 12 1007.6 1007.5 0.0
22/08:00pm 21.2 21.2 15.1 68 3.6 SSW 9 17 5 9 1007.1 1007.0 0.0
22/07:30pm 23.3 23.1 14.6 58 5.2 ESE 9 11 5 6 1006.8 1006.7 0.0
22/07:00pm 23.8 23.3 13.9 54 5.8 E 9 15 5 8 1006.4 1006.3 0.0
22/06:30pm 23.9 22.3 14.0 54 5.8 ENE 15 20 8 11 1006.0 1005.9 0.0
22/06:00pm 24.0 22.1 14.1 54 5.9 ENE 17 22 9 12 1006.1 1006.0 0.0
22/05:30pm 24.7 22.5 14.5 53 6.1 E 19 26 10 14 1006.1 1006.0 0.0
22/05:00pm 25.2 23.2 14.9 52 6.2 ESE 19 28 10 15 1006.2 1006.1 0.0
22/04:30pm 25.5 24.4 15.2 53 6.2 E 15 20 8 11 1007.3 1007.2 0.0
22/04:00pm 25.1 24.6 14.8 52 6.2 ESE 11 17 6 9 1008.1 1008.0 0.0
22/03:30pm 25.2 25.0 14.6 51 6.3 ENE 9 15 5 8 1008.3 1008.2 0.0
22/03:00pm 24.3 22.2 14.7 55 5.7 ENE 19 26 10 14 1007.8 1007.7 0.0
22/02:30pm 24.3 22.2 14.7 55 5.7 ENE 19 30 10 16 1007.9 1007.8 0.0
22/02:00pm 24.5 21.7 14.3 53 6.1 NE 22 35 12 19 1008.6 1008.5 0.0
22/01:30pm 23.8 20.3 14.5 56 5.5 NE 26 37 14 20 1009.0 1008.9 0.0
22/01:00pm 22.8 20.0 14.4 59 5.0 NE 22 32 12 17 1010.1 1010.0 0.0
22/12:30pm 21.7 16.9 13.9 61 4.5 NE 32 41 17 22 1009.4 1009.3 0.0
22/12:00pm 21.4 18.0 13.6 61 4.5 NE 24 37 13 20 1009.7 1009.6 0.0
22/11:30am 21.3 18.8 14.0 63 4.2 E 20 33 11 18 1010.4 1010.3 0.0
22/11:00am 20.5 16.4 13.7 65 3.9 ENE 28 39 15 21 1010.3 1010.2 0.0
22/10:30am 19.0 17.4 14.9 77 2.4 ESE 17 26 9 14 1010.8 1010.7 0.0
22/10:00am 16.9 15.9 14.7 87 1.3 E 13 20 7 11 1011.9 1011.8 0.0
22/09:30am 16.3 15.5 14.1 87 1.3 ESE 11 17 6 9 1012.5 1012.4 0.0
22/09:00am 16.1 13.9 14.3 89 1.0 E 19 28 10 15 1012.0 1011.9 0.0
22/08:30am 15.6 15.3 14.5 93 0.6 ESE 9 15 5 8 1012.7 1012.6 0.0
22/08:00am 15.0 14.6 14.2 95 0.5 ESE 9 15 5 8 1013.1 1012.9 0.0
22/07:30am 14.3 13.4 13.7 96 0.3 ESE 11 15 6 8 1012.7 1012.6 0.0
22/07:00am 14.0 13.9 13.4 96 0.3 S 6 7 3 4 1013.1 1012.9 0.0
22/06:30am 13.8 14.4 13.2 96 0.3 E 2 6 1 3 1012.4 1012.3 0.0
22/06:00am 13.8 13.4 13.0 95 0.4 E 7 13 4 7 1012.3 1012.2 0.0
22/05:30am 13.9 13.2 13.1 95 0.4 E 9 15 5 8 1011.9 1011.8 0.0
22/05:00am 13.7 12.9 12.9 95 0.4 ESE 9 11 5 6 1011.7 1011.6 0.0
22/04:30am 13.7 13.8 12.8 94 0.5 ESE 4 7 2 4 1012.0 1011.9 0.0
22/04:00am 13.4 12.4 12.3 93 0.6 E 9 11 5 6 1012.1 1012.0 0.0
22/03:30am 13.6 12.2 12.3 92 0.7 SSE 11 13 6 7 1013.0 1012.8 0.0
22/03:00am 14.0 13.5 12.6 91 0.8 SE 7 11 4 6 1013.1 1012.9 0.0
22/02:30am 14.6 13.5 13.1 91 0.8 SE 11 17 6 9 1013.5 1013.3 0.0
22/02:00am 14.9 12.7 13.4 91 0.8 SE 17 24 9 13 1013.7 1013.6 0.0
22/01:30am 14.5 12.2 13.0 91 0.8 SSE 17 24 9 13 1014.1 1014.0 0.0
22/01:00am 14.7 11.9 13.2 91 0.8 S 20 26 11 14 1014.1 1014.0 0.0
22/12:30am 14.3 11.5 12.5 89 1.0 S 19 22 10 12 1014.6 1014.5 0.0
22/12:00am 14.9 12.5 12.6 86 1.3 SSE 17 22 9 12 1014.9 1014.8 0.0
 
Date/Time
EDT
Temp
°C
App
Temp
°C
Dew
Point
Rel
Hum
%
Delta-T
°C
Wind Press
QNH
hPa
Press
MSL
hPa
Rain
since 9 am
mm
Dir
 
Spd
km/h
Gust
km/h
Spd
kts
Gust
kts
21/11:30pm 15.9 13.6 13.0 83 1.6 SE 17 22 9 12 1014.8 1014.7 0.0
21/11:00pm 16.0 13.7 13.1 83 1.6 SE 17 24 9 13 1015.0 1014.9 0.0
21/10:30pm 16.1 13.8 13.0 82 1.7 SE 17 20 9 11 1015.4 1015.3 0.0
21/10:00pm 16.2 13.4 13.3 83 1.6 SSE 20 26 11 14 1015.3 1015.2 0.0
21/09:30pm 16.2 13.1 13.5 84 1.5 SSE 22 30 12 16 1014.9 1014.8 0.0
21/09:00pm 16.1 13.1 13.6 85 1.4 SSE 22 30 12 16 1014.7 1014.6 0.0
21/08:30pm 15.9 12.3 13.2 84 1.5 SSE 24 30 13 16 1014.3 1014.2 0.0
21/08:00pm 16.9 12.7 13.4 80 2.0 SSE 28 35 15 19 1014.1 1014.0 0.0
21/07:30pm 17.2 13.1 13.7 80 2.0 S 28 37 15 20 1013.9 1013.8 0.0
21/07:00pm 17.7 13.7 14.0 79 2.1 S 28 35 15 19 1013.8 1013.7 0.0
21/06:30pm 18.3 14.8 14.4 78 2.3 SSW 26 32 14 17 1013.4 1013.2 0.0
21/06:00pm 20.1 17.4 14.5 70 3.3 SSW 22 30 12 16 1013.3 1013.1 0.0
21/05:30pm 21.7 18.6 13.3 59 4.8 SSW 22 28 12 15 1013.0 1012.8 0.0
21/05:00pm 22.2 19.8 13.8 59 4.9 SSW 19 26 10 14 1013.0 1012.8 0.0
21/04:30pm 22.1 19.5 13.2 57 5.1 SSW 19 24 10 13 1013.1 1012.9 0.0
21/04:00pm 21.4 18.6 13.1 59 4.8 SSW 20 26 11 14 1013.2 1013.0 0.0
21/03:30pm 22.6 19.8 12.5 53 5.8 S 19 26 10 14 1013.2 1013.0 0.0
21/03:00pm 23.3 20.7 13.2 53 5.9 S 19 26 10 14 1013.3 1013.1 0.0
21/02:30pm 22.9 20.1 14.2 58 5.1 SSE 22 30 12 16 1013.5 1013.3 0.0
21/02:00pm 22.6 19.3 13.9 58 5.1 SSE 24 32 13 17 1013.9 1013.8 0.0
21/01:30pm 21.4 17.2 13.6 61 4.5 SSW 28 39 15 21 1014.3 1014.2 0.0
21/01:00pm 22.0 16.7 14.1 61 4.6 SSW 35 43 19 23 1014.2 1014.1 0.0
21/12:30pm 24.3 18.8 12.6 48 6.7 SSW 33 43 18 23 1014.0 1013.9 0.0
21/12:00pm 23.1 17.2 12.4 51 6.1 SSW 35 43 19 23 1014.1 1014.0 0.0
21/11:30am 26.9 24.3 15.0 48 7.2 WSW 22 32 12 17 1013.4 1013.2 0.0
21/11:00am 26.6 25.0 11.5 39 8.6 WNW 11 19 6 10 1013.5 1013.3 0.0
21/10:30am 26.0 24.4 12.8 44 7.7 N 13 19 7 10 1013.7 1013.6 0.0
21/10:00am 24.3 23.7 13.5 51 6.3 NNE 9 15 5 8 1013.8 1013.7 0.0
21/09:30am 21.7 20.9 14.1 62 4.4 NE 11 15 6 8 1013.9 1013.8 0.0
21/09:00am 19.2 17.3 12.9 67 3.6 NE 15 20 8 11 1013.9 1013.8 0.0
21/08:30am 16.8 14.4 13.9 83 1.6 NE 19 24 10 13 1013.8 1013.7 0.0
21/08:00am 14.8 12.3 13.5 92 0.7 NE 19 24 10 13 1014.0 1013.9 0.0
21/07:30am 13.0 10.8 12.2 95 0.4 NE 15 20 8 11 1013.7 1013.6 0.0
21/07:00am 11.8 9.0 11.2 96 0.3 NE 17 20 9 11 1013.6 1013.4 0.0
21/06:30am 11.1 8.4 10.5 96 0.3 NE 15 22 8 12 1013.4 1013.2 0.0
21/06:00am 10.6 8.1 9.8 95 0.4 ENE 13 17 7 9 1013.3 1013.1 0.0
21/05:30am 11.0 9.0 10.2 95 0.4 ENE 11 15 6 8 1013.8 1013.7 0.0
21/05:00am 11.5 9.2 10.6 94 0.5 NE 13 19 7 10 1014.0 1013.9 0.0
21/04:30am 11.9 8.7 11.1 95 0.4 NE 19 24 10 13 1013.9 1013.8 0.0
21/04:00am 11.8 8.9 11.0 95 0.4 NE 17 22 9 12 1013.9 1013.8 0.0
21/03:30am 11.5 8.1 10.7 95 0.4 NE 19 24 10 13 1013.7 1013.6 0.0
21/03:00am 11.1 9.5 10.2 94 0.5 NE 9 15 5 8 1013.8 1013.7 0.0
21/02:30am 11.3 9.8 10.4 94 0.5 NE 9 15 5 8 1014.3 1014.2 0.0
21/02:00am 11.4 9.8 10.3 93 0.6 ENE 9 11 5 6 1014.9 1014.8 0.0
21/01:30am 11.6 10.4 10.3 92 0.7 ENE 7 11 4 6 1015.6 1015.5 0.0
21/01:00am 11.8 10.8 10.4 91 0.7 E 6 9 3 5 1016.1 1016.0 0.0
21/12:30am 11.9 10.9 10.3 90 0.8 E 6 9 3 5 1016.3 1016.2 0.0
21/12:00am 12.1 11.0 10.5 90 0.8 E 7 11 4 6 1016.9 1016.8 0.0
 
Date/Time
EDT
Temp
°C
App
Temp
°C
Dew
Point
Rel
Hum
%
Delta-T
°C
Wind Press
QNH
hPa
Press
MSL
hPa
Rain
since 9 am
mm
Dir
 
Spd
km/h
Gust
km/h
Spd
kts
Gust
kts
20/11:30pm 12.0 11.3 10.1 88 1.0 E 4 7 2 4 1017.3 1017.2 0.0
20/11:00pm 12.1 12.2 10.0 87 1.1 CALM 0 0 0 0 1017.5 1017.4 0.0
20/10:30pm 12.2 11.5 9.9 86 1.2 SE 4 7 2 4 1017.6 1017.5 0.0
20/10:00pm 13.0 13.1 10.2 83 1.4 CALM 0 6 0 3 1017.6 1017.5 0.0
20/09:30pm 13.2 11.9 9.8 80 1.7 SE 7 9 4 5 1017.5 1017.4 0.0
20/09:00pm 14.1 12.3 9.5 74 2.4 SSE 9 11 5 6 1017.6 1017.5 0.0
20/08:30pm 15.6 13.3 10.4 71 2.7 SSE 13 17 7 9 1017.5 1017.4 0.0
20/08:00pm 16.6 13.6 10.7 68 3.2 SSE 17 24 9 13 1017.4 1017.3 0.0
20/07:30pm 17.2 13.8 10.6 65 3.5 S 19 22 10 12 1017.3 1017.2 0.0
20/07:00pm 18.1 15.1 10.7 62 4.0 S 17 24 9 13 1017.1 1017.0 0.0
20/06:30pm 18.2 14.9 10.8 62 4.0 SSW 19 26 10 14 1017.3 1017.2 0.0
20/06:00pm 18.3 15.1 11.1 63 3.9 SSW 19 24 10 13 1017.3 1017.2 0.0
20/05:30pm 18.5 14.6 10.8 61 4.2 SSW 22 30 12 16 1017.5 1017.4 0.0
20/05:00pm 18.9 15.1 11.0 60 4.3 SSW 22 30 12 16 1017.6 1017.5 0.0
20/04:30pm 19.4 16.0 11.4 60 4.4 SSW 20 30 11 16 1017.8 1017.7 0.0
20/04:00pm 20.3 16.4 12.0 59 4.6 S 24 32 13 17 1018.1 1018.0 0.0
20/03:30pm 19.1 15.1 10.6 58 4.6 SW 22 32 12 17 1018.5 1018.4 0.0
20/03:00pm 19.8 15.5 10.8 56 4.9 SSW 24 33 13 18 1018.7 1018.6 0.0
20/02:30pm 20.2 15.6 10.9 55 5.1 SSW 26 37 14 20 1019.0 1018.9 0.0
20/02:00pm 19.5 14.8 10.5 56 4.9 SW 26 39 14 21 1019.3 1019.2 0.0
20/01:30pm 19.9 14.9 10.9 56 4.9 SW 28 41 15 22 1019.3 1019.2 0.0
20/01:00pm 19.8 14.8 10.8 56 4.9 SW 28 37 15 20 1019.4 1019.3 0.0
20/12:30pm 19.4 14.4 10.9 58 4.6 SSW 28 39 15 21 1019.5 1019.4 0.0
20/12:00pm 19.1 14.4 10.6 58 4.6 SSW 26 39 14 21 1019.5 1019.4 0.0
20/11:30am 19.4 15.0 10.4 56 4.9 SW 24 33 13 18 1019.6 1019.5 0.0
20/11:00am 18.9 15.3 10.7 59 4.4 SW 20 33 11 18 1019.6 1019.5 0.0
20/10:30am 18.0 14.7 10.9 63 3.8 SW 19 26 10 14 1019.8 1019.7 0.0
20/10:00am 18.2 15.4 11.5 65 3.7 W 17 28 9 15 1019.7 1019.6 0.0
20/09:30am 16.6 13.7 10.9 69 3.1 W 17 24 9 13 1019.7 1019.6 0.0
20/09:00am 16.3 13.7 10.8 70 2.9 W 15 20 8 11 1019.5 1019.4 0.0
20/08:30am 15.1 13.5 11.5 79 1.9 WNW 11 13 6 7 1019.1 1019.0 0.0

Other Formats:

Comma delimited format used in spreadsheet applications
http://www.bom.gov.au/fwo/IDV60801/IDV60801.94837.axf

JavaScript Object Notation format (JSON) in row-major order
http://www.bom.gov.au/fwo/IDV60801/IDV60801.94837.json